SHT133P EGJB-EGLL
Flight info
| Callsign | SHT133P |
|---|---|
| Flight time | 0h 33m |
| Altitude | 23000 |
| Route | ORIST L982 ROXOG |
| Aircraft | A20N/M-SDE2E3FGHIRWXY/LB1 |
Departure
| Time | 2026-04-21 20:42 |
|---|---|
| Airport | Guernsey Airport (EGJB) |
Arrival
| Time | 2026-04-21 21:15 |
|---|---|
| Airport | London Heathrow Airport (EGLL) |
| Time | Latitude | Longitude | Altitude | Speed | Heading |
|---|---|---|---|---|---|
| 2026-04-21 20:38 | 49.43362 | -2.59603 | 328 ft | 4 kts | 266° |
| 2026-04-21 20:38 | 49.43361 | -2.59610 | 328 ft | 0 kts | 266° |
| 2026-04-21 20:38 | 49.43360 | -2.59646 | 332 ft | 10 kts | 266° |
| 2026-04-21 20:39 | 49.43346 | -2.59844 | 327 ft | 27 kts | 266° |
| 2026-04-21 20:39 | 49.43335 | -2.60232 | 301 ft | 43 kts | 268° |
| 2026-04-21 20:39 | 49.43340 | -2.60673 | 303 ft | 38 kts | 279° |
| 2026-04-21 20:39 | 49.43361 | -2.61042 | 314 ft | 19 kts | 268° |
| 2026-04-21 20:40 | 49.43358 | -2.61181 | 315 ft | 0 kts | 268° |
| 2026-04-21 20:40 | 49.43359 | -2.61223 | 316 ft | 7 kts | 275° |
| 2026-04-21 20:40 | 49.43390 | -2.61309 | 318 ft | 12 kts | 313° |
| 2026-04-21 20:41 | 49.43451 | -2.61337 | 318 ft | 9 kts | 37° |
| 2026-04-21 20:41 | 49.43468 | -2.61223 | 318 ft | 27 kts | 87° |
| 2026-04-21 20:41 | 49.43494 | -2.60475 | 313 ft | 114 kts | 85° |
| 2026-04-21 20:41 | 49.43570 | -2.58997 | 664 ft | 156 kts | 84° |
| 2026-04-21 20:42 | 49.43667 | -2.57207 | 1387 ft | 174 kts | 85° |
| 2026-04-21 20:42 | 49.43745 | -2.55317 | 2345 ft | 181 kts | 89° |
| 2026-04-21 20:42 | 49.43770 | -2.53225 | 3068 ft | 209 kts | 90° |
| 2026-04-21 20:42 | 49.43815 | -2.50913 | 3995 ft | 226 kts | 86° |
| 2026-04-21 20:43 | 49.44457 | -2.48549 | 4658 ft | 264 kts | 55° |
| 2026-04-21 20:43 | 49.46095 | -2.46763 | 4942 ft | 321 kts | 27° |
| 2026-04-21 20:43 | 49.48459 | -2.45989 | 4995 ft | 373 kts | 12° |
| 2026-04-21 20:43 | 49.50919 | -2.45600 | 7119 ft | 320 kts | 9° |
| 2026-04-21 20:44 | 49.52928 | -2.45357 | 9763 ft | 260 kts | 8° |
| 2026-04-21 20:44 | 49.54695 | -2.45036 | 11122 ft | 250 kts | 8° |
| 2026-04-21 20:44 | 49.56397 | -2.44620 | 12164 ft | 250 kts | 10° |
| 2026-04-21 20:44 | 49.58131 | -2.43785 | 12598 ft | 274 kts | 22° |
| 2026-04-21 20:45 | 49.59859 | -2.42229 | 12924 ft | 302 kts | 36° |
| 2026-04-21 20:45 | 49.61563 | -2.40101 | 13245 ft | 328 kts | 39° |
| 2026-04-21 20:45 | 49.63329 | -2.37674 | 13629 ft | 350 kts | 41° |
| 2026-04-21 20:45 | 49.65154 | -2.35086 | 14285 ft | 361 kts | 41° |
| 2026-04-21 20:46 | 49.67009 | -2.32429 | 15032 ft | 367 kts | 40° |
| 2026-04-21 20:46 | 49.68885 | -2.29733 | 15883 ft | 370 kts | 41° |
| 2026-04-21 20:46 | 49.70773 | -2.27012 | 16713 ft | 373 kts | 39° |
| 2026-04-21 20:46 | 49.72683 | -2.24261 | 17562 ft | 376 kts | 39° |
| 2026-04-21 20:47 | 49.74595 | -2.21500 | 18472 ft | 377 kts | 39° |
| 2026-04-21 20:47 | 49.76522 | -2.18717 | 19131 ft | 382 kts | 40° |
| 2026-04-21 20:47 | 49.78476 | -2.15891 | 19752 ft | 387 kts | 37° |
| 2026-04-21 20:47 | 49.80457 | -2.13023 | 20396 ft | 392 kts | 39° |
| 2026-04-21 20:48 | 49.82454 | -2.10127 | 21033 ft | 396 kts | 38° |
| 2026-04-21 20:48 | 49.84475 | -2.07190 | 21696 ft | 400 kts | 38° |
| 2026-04-21 20:48 | 49.86518 | -2.04220 | 22348 ft | 404 kts | 39° |
| 2026-04-21 20:48 | 49.88580 | -2.01219 | 22921 ft | 409 kts | 38° |
| 2026-04-21 20:49 | 49.90654 | -1.98194 | 23159 ft | 410 kts | 38° |
| 2026-04-21 20:49 | 49.92733 | -1.95156 | 23199 ft | 411 kts | 38° |
| 2026-04-21 20:49 | 49.94818 | -1.92109 | 23197 ft | 412 kts | 39° |
| 2026-04-21 20:49 | 49.96901 | -1.89060 | 23206 ft | 412 kts | 38° |
| 2026-04-21 20:50 | 49.98954 | -1.86043 | 23204 ft | 412 kts | 39° |
| 2026-04-21 20:50 | 50.01080 | -1.83101 | 23199 ft | 406 kts | 29° |
| 2026-04-21 20:50 | 50.03483 | -1.80871 | 23212 ft | 400 kts | 22° |
| 2026-04-21 20:50 | 50.05982 | -1.78992 | 23211 ft | 397 kts | 19° |
| 2026-04-21 20:51 | 50.08504 | -1.77238 | 23213 ft | 397 kts | 19° |
| 2026-04-21 20:51 | 50.11022 | -1.75477 | 23210 ft | 397 kts | 20° |
| 2026-04-21 20:51 | 50.13441 | -1.73345 | 23212 ft | 402 kts | 28° |
| 2026-04-21 20:51 | 50.15724 | -1.70790 | 23217 ft | 405 kts | 33° |
| 2026-04-21 20:52 | 50.17913 | -1.68012 | 23212 ft | 407 kts | 35° |
| 2026-04-21 20:52 | 50.20061 | -1.65132 | 23216 ft | 407 kts | 36° |
| 2026-04-21 20:52 | 50.22192 | -1.62235 | 23215 ft | 407 kts | 36° |
| 2026-04-21 20:52 | 50.24328 | -1.59346 | 23080 ft | 403 kts | 36° |
| 2026-04-21 20:53 | 50.26473 | -1.56611 | 22703 ft | 390 kts | 28° |
| 2026-04-21 20:53 | 50.28839 | -1.54774 | 22370 ft | 375 kts | 19° |
| 2026-04-21 20:53 | 50.31218 | -1.53163 | 21884 ft | 370 kts | 18° |
| 2026-04-21 20:53 | 50.33592 | -1.51632 | 21365 ft | 367 kts | 17° |
| 2026-04-21 20:54 | 50.35946 | -1.50117 | 20895 ft | 364 kts | 17° |
| 2026-04-21 20:54 | 50.38275 | -1.48609 | 20374 ft | 361 kts | 18° |
| 2026-04-21 20:54 | 50.40585 | -1.47107 | 19925 ft | 357 kts | 18° |
| 2026-04-21 20:54 | 50.42870 | -1.45614 | 19410 ft | 356 kts | 19° |
| 2026-04-21 20:55 | 50.45151 | -1.44122 | 18900 ft | 354 kts | 19° |
| 2026-04-21 20:55 | 50.47411 | -1.42639 | 18420 ft | 351 kts | 19° |
| 2026-04-21 20:55 | 50.49658 | -1.41163 | 17869 ft | 348 kts | 19° |
| 2026-04-21 20:55 | 50.51880 | -1.39701 | 17388 ft | 344 kts | 20° |
| 2026-04-21 20:56 | 50.54082 | -1.38251 | 16805 ft | 343 kts | 19° |
| 2026-04-21 20:56 | 50.56276 | -1.36806 | 16312 ft | 340 kts | 20° |
| 2026-04-21 20:56 | 50.58439 | -1.35379 | 15830 ft | 336 kts | 21° |
| 2026-04-21 20:56 | 50.60596 | -1.33955 | 15260 ft | 336 kts | 22° |
| 2026-04-21 20:57 | 50.62738 | -1.32539 | 14819 ft | 331 kts | 23° |
| 2026-04-21 20:57 | 50.64864 | -1.31133 | 14253 ft | 332 kts | 24° |
| 2026-04-21 20:57 | 50.66985 | -1.29726 | 13741 ft | 330 kts | 25° |
| 2026-04-21 20:57 | 50.69082 | -1.28334 | 13357 ft | 325 kts | 25° |
| 2026-04-21 20:58 | 50.71168 | -1.26947 | 13261 ft | 326 kts | 25° |
| 2026-04-21 20:58 | 50.73253 | -1.25561 | 13258 ft | 325 kts | 25° |
| 2026-04-21 20:58 | 50.75341 | -1.24171 | 13262 ft | 326 kts | 25° |
| 2026-04-21 20:58 | 50.77431 | -1.22779 | 13261 ft | 326 kts | 26° |
| 2026-04-21 20:59 | 50.79520 | -1.21386 | 13266 ft | 326 kts | 25° |
| 2026-04-21 20:59 | 50.81589 | -1.19926 | 13264 ft | 325 kts | 30° |
| 2026-04-21 20:59 | 50.83484 | -1.18087 | 13266 ft | 323 kts | 36° |
| 2026-04-21 20:59 | 50.85334 | -1.16071 | 13265 ft | 323 kts | 37° |
| 2026-04-21 21:00 | 50.87165 | -1.13999 | 13267 ft | 323 kts | 38° |
| 2026-04-21 21:00 | 50.89010 | -1.11879 | 13270 ft | 323 kts | 38° |
| 2026-04-21 21:00 | 50.90826 | -1.09777 | 13272 ft | 324 kts | 38° |
| 2026-04-21 21:00 | 50.92619 | -1.07694 | 13270 ft | 323 kts | 38° |
| 2026-04-21 21:01 | 50.94430 | -1.05585 | 13287 ft | 324 kts | 38° |
| 2026-04-21 21:01 | 50.96245 | -1.03467 | 13285 ft | 324 kts | 38° |
| 2026-04-21 21:01 | 50.98064 | -1.01341 | 13286 ft | 324 kts | 38° |
| 2026-04-21 21:01 | 50.99871 | -0.99240 | 12892 ft | 322 kts | 38° |
| 2026-04-21 21:02 | 51.01504 | -0.96867 | 12369 ft | 317 kts | 50° |
| 2026-04-21 21:02 | 51.02976 | -0.94270 | 11849 ft | 315 kts | 50° |
| 2026-04-21 21:02 | 51.04418 | -0.91662 | 11364 ft | 313 kts | 50° |
| 2026-04-21 21:02 | 51.05847 | -0.89077 | 10878 ft | 310 kts | 50° |
| 2026-04-21 21:03 | 51.07270 | -0.86515 | 10418 ft | 307 kts | 50° |
| 2026-04-21 21:03 | 51.08679 | -0.83989 | 9908 ft | 305 kts | 51° |
| 2026-04-21 21:03 | 51.10076 | -0.81487 | 9481 ft | 298 kts | 51° |
| 2026-04-21 21:03 | 51.11428 | -0.79071 | 9279 ft | 285 kts | 51° |
| 2026-04-21 21:04 | 51.12718 | -0.76765 | 9063 ft | 274 kts | 51° |
| 2026-04-21 21:04 | 51.13983 | -0.74496 | 8524 ft | 275 kts | 51° |
| 2026-04-21 21:04 | 51.15267 | -0.72192 | 7889 ft | 280 kts | 51° |
| 2026-04-21 21:04 | 51.16559 | -0.69871 | 7449 ft | 278 kts | 51° |
| 2026-04-21 21:05 | 51.17813 | -0.67625 | 7328 ft | 264 kts | 51° |
| 2026-04-21 21:05 | 51.19011 | -0.65477 | 7277 ft | 257 kts | 51° |
| 2026-04-21 21:05 | 51.20190 | -0.63357 | 6883 ft | 256 kts | 52° |
| 2026-04-21 21:05 | 51.21372 | -0.61227 | 6446 ft | 256 kts | 52° |
| 2026-04-21 21:06 | 51.22547 | -0.59108 | 6033 ft | 254 kts | 52° |
| 2026-04-21 21:06 | 51.23717 | -0.57000 | 5626 ft | 253 kts | 52° |
| 2026-04-21 21:06 | 51.24875 | -0.54912 | 5357 ft | 250 kts | 52° |
| 2026-04-21 21:06 | 51.26024 | -0.52838 | 5314 ft | 251 kts | 52° |
| 2026-04-21 21:07 | 51.27183 | -0.50741 | 5179 ft | 252 kts | 52° |
| 2026-04-21 21:07 | 51.28324 | -0.48679 | 4911 ft | 250 kts | 52° |
| 2026-04-21 21:07 | 51.29496 | -0.46640 | 4523 ft | 250 kts | 45° |
| 2026-04-21 21:07 | 51.31082 | -0.45447 | 3964 ft | 264 kts | 11° |
| 2026-04-21 21:08 | 51.32877 | -0.46013 | 3738 ft | 269 kts | 335° |
| 2026-04-21 21:08 | 51.34170 | -0.48117 | 3617 ft | 266 kts | 303° |
| 2026-04-21 21:08 | 51.35032 | -0.50677 | 3521 ft | 256 kts | 301° |
| 2026-04-21 21:08 | 51.35917 | -0.53097 | 3316 ft | 250 kts | 306° |
| 2026-04-21 21:09 | 51.36894 | -0.55372 | 3051 ft | 247 kts | 310° |
| 2026-04-21 21:09 | 51.37937 | -0.57538 | 2742 ft | 246 kts | 313° |
| 2026-04-21 21:09 | 51.39020 | -0.59640 | 2517 ft | 243 kts | 315° |
| 2026-04-21 21:09 | 51.40122 | -0.61697 | 2487 ft | 243 kts | 316° |
| 2026-04-21 21:10 | 51.41241 | -0.63741 | 2494 ft | 245 kts | 317° |
| 2026-04-21 21:10 | 51.42368 | -0.65780 | 2490 ft | 245 kts | 317° |
| 2026-04-21 21:10 | 51.43500 | -0.67817 | 2494 ft | 245 kts | 317° |
| 2026-04-21 21:10 | 51.44634 | -0.69854 | 2490 ft | 245 kts | 317° |
| 2026-04-21 21:11 | 51.45916 | -0.71522 | 2481 ft | 230 kts | 347° |
| 2026-04-21 21:11 | 51.47352 | -0.71605 | 2485 ft | 192 kts | 30° |
| 2026-04-21 21:11 | 51.48190 | -0.70237 | 2499 ft | 170 kts | 77° |
| 2026-04-21 21:11 | 51.48197 | -0.68351 | 2501 ft | 173 kts | 96° |
| 2026-04-21 21:12 | 51.48014 | -0.66432 | 2489 ft | 175 kts | 96° |
| 2026-04-21 21:12 | 51.47877 | -0.64492 | 2493 ft | 175 kts | 93° |
| 2026-04-21 21:12 | 51.47725 | -0.62597 | 2447 ft | 167 kts | 95° |
| 2026-04-21 21:12 | 51.47662 | -0.60811 | 2337 ft | 151 kts | 89° |
| 2026-04-21 21:13 | 51.47668 | -0.59247 | 2164 ft | 130 kts | 89° |
| 2026-04-21 21:13 | 51.47678 | -0.57850 | 1779 ft | 126 kts | 88° |
| 2026-04-21 21:13 | 51.47686 | -0.56386 | 1215 ft | 134 kts | 87° |
| 2026-04-21 21:13 | 51.47690 | -0.54937 | 958 ft | 123 kts | 86° |
| 2026-04-21 21:14 | 51.47698 | -0.53602 | 769 ft | 119 kts | 87° |
| 2026-04-21 21:14 | 51.47707 | -0.52277 | 597 ft | 118 kts | 87° |
| 2026-04-21 21:14 | 51.47725 | -0.50949 | 438 ft | 119 kts | 84° |
| 2026-04-21 21:14 | 51.47739 | -0.49614 | 268 ft | 119 kts | 88° |
| 2026-04-21 21:15 | 51.47743 | -0.48304 | 125 ft | 116 kts | 87° |
| 2026-04-21 21:15 | 51.47754 | -0.47098 | 90 ft | 75 kts | 90° |
| 2026-04-21 21:15 | 51.47758 | -0.46447 | 93 ft | 39 kts | 90° |
| 2026-04-21 21:15 | 51.47757 | -0.46342 | 94 ft | 6 kts | 90° |
| 2026-04-21 21:16 | 51.47754 | -0.46248 | 94 ft | 19 kts | 102° |
| 2026-04-21 21:16 | 51.47639 | -0.46074 | 93 ft | 22 kts | 143° |